createdAt,value
2018-03-26T00:01:15.039Z,20.40
2018-03-26T00:03:42.502Z,20.20
2018-03-26T00:06:09.985Z,20.23
2018-03-26T00:08:38.244Z,20.20
2018-03-26T00:11:05.713Z,19.37
2018-03-26T00:13:33.952Z,19.93
2018-03-26T00:16:01.425Z,19.83
2018-03-26T00:18:28.881Z,20.47
2018-03-26T00:20:56.370Z,19.70
2018-03-26T00:23:23.824Z,19.57
2018-03-26T00:25:51.302Z,16.23
2018-03-26T00:28:18.757Z,18.37
2018-03-26T00:30:46.242Z,17.30
2018-03-26T00:33:14.465Z,18.07
2018-03-26T00:35:41.952Z,17.43
2018-03-26T00:38:09.413Z,18.13
2018-03-26T00:40:36.906Z,19.10
2018-03-26T00:43:05.145Z,18.47
2018-03-26T00:45:32.615Z,17.67
2018-03-26T00:48:00.114Z,19.10
2018-03-26T00:50:27.571Z,19.00
2018-03-26T00:52:55.820Z,17.13
2018-03-26T00:55:23.299Z,16.83
2018-03-26T00:57:50.767Z,16.80
2018-03-26T01:00:18.240Z,17.00
2018-03-26T01:02:47.496Z,15.80
2018-03-26T01:05:14.982Z,15.00
2018-03-26T01:07:42.460Z,15.20
2018-03-26T01:10:09.941Z,15.83
2018-03-26T01:12:38.182Z,14.73
2018-03-26T01:15:05.635Z,13.97
2018-03-26T01:17:33.114Z,14.23
2018-03-26T01:20:00.568Z,15.10
2018-03-26T01:22:28.053Z,14.73
2018-03-26T01:24:55.514Z,16.63
2018-03-26T01:27:22.994Z,15.67
2018-03-26T01:29:51.226Z,15.23
2018-03-26T01:32:18.702Z,14.93
2018-03-26T01:34:46.178Z,14.67
2018-03-26T01:37:13.649Z,14.50
2018-03-26T01:39:41.111Z,14.37
2018-03-26T01:42:08.589Z,13.80
2018-03-26T01:44:36.826Z,13.90
2018-03-26T01:47:04.302Z,14.50
2018-03-26T01:49:40.582Z,15.33
2018-03-26T01:52:08.067Z,15.17
2018-03-26T01:54:36.307Z,14.80
2018-03-26T01:57:03.785Z,13.50
2018-03-26T01:59:31.244Z,14.50
2018-03-26T02:01:59.480Z,14.27
2018-03-26T02:04:26.937Z,14.50
2018-03-26T02:06:54.404Z,14.33
2018-03-26T02:09:21.871Z,15.57
2018-03-26T02:11:49.355Z,14.60
2018-03-26T02:14:16.851Z,14.73
2018-03-26T02:16:44.325Z,15.33
2018-03-26T02:19:11.789Z,15.33
2018-03-26T02:21:39.267Z,15.23
2018-03-26T02:24:06.869Z,14.27
2018-03-26T02:26:34.345Z,13.23
2018-03-26T02:29:02.579Z,15.30
2018-03-26T02:31:30.040Z,16.63
2018-03-26T02:33:57.506Z,14.90
2018-03-26T02:36:24.974Z,14.87
2018-03-26T02:38:52.466Z,13.40
2018-03-26T02:41:19.934Z,13.77
2018-03-26T02:43:48.174Z,13.83
2018-03-26T02:46:15.634Z,13.23
2018-03-26T02:48:43.098Z,12.37
2018-03-26T02:51:10.588Z,12.27
2018-03-26T02:53:38.070Z,13.40
2018-03-26T02:56:06.299Z,13.50
2018-03-26T02:58:33.772Z,12.10
2018-03-26T03:01:01.243Z,13.13
2018-03-26T03:03:28.697Z,14.23
2018-03-26T03:05:56.172Z,14.07
2018-03-26T03:08:23.646Z,13.70
2018-03-26T03:10:51.127Z,13.43
2018-03-26T03:13:19.364Z,12.80
2018-03-26T03:15:46.827Z,13.47
2018-03-26T03:18:14.307Z,13.17
2018-03-26T03:20:41.766Z,13.97
2018-03-26T03:23:09.236Z,14.73
2018-03-26T03:25:36.708Z,21.27
2018-03-26T03:28:04.966Z,18.00
2018-03-26T03:30:32.430Z,18.13
2018-03-26T03:32:59.886Z,16.60
2018-03-26T03:35:27.360Z,15.57
2018-03-26T03:37:54.821Z,13.20
2018-03-26T03:40:22.290Z,13.23
2018-03-26T03:42:49.769Z,13.50
2018-03-26T03:45:18.010Z,12.80
2018-03-26T03:47:45.479Z,14.07
2018-03-26T03:50:12.964Z,14.83
2018-03-26T03:52:40.417Z,14.47
2018-03-26T03:55:07.892Z,13.57
2018-03-26T03:57:35.358Z,14.60
2018-03-26T04:00:03.659Z,14.20
2018-03-26T04:02:31.077Z,14.47
2018-03-26T04:04:58.566Z,13.50
2018-03-26T04:07:26.808Z,14.10
2018-03-26T04:09:54.286Z,14.03
2018-03-26T04:12:21.758Z,14.37
2018-03-26T04:14:49.239Z,13.07
2018-03-26T04:17:17.481Z,13.70
2018-03-26T04:19:44.960Z,13.47
2018-03-26T04:22:12.418Z,12.33
2018-03-26T04:24:39.889Z,12.97
2018-03-26T04:27:07.344Z,14.00
2018-03-26T04:29:34.800Z,13.70
2018-03-26T04:32:02.343Z,13.10
2018-03-26T04:34:30.531Z,13.43
2018-03-26T04:36:57.992Z,13.83
2018-03-26T04:39:25.479Z,13.57
2018-03-26T04:41:52.939Z,13.90
2018-03-26T04:44:20.429Z,13.30
2018-03-26T04:46:48.660Z,12.57
2018-03-26T04:49:16.139Z,13.13
2018-03-26T04:51:43.615Z,13.90
2018-03-26T04:54:11.079Z,13.53
2018-03-26T04:56:38.556Z,14.43
2018-03-26T04:59:06.794Z,14.17
2018-03-26T05:01:34.263Z,12.70
2018-03-26T05:04:01.723Z,13.63
2018-03-26T05:06:29.204Z,13.17
2018-03-26T05:08:56.665Z,13.83
2018-03-26T05:11:24.153Z,13.83
2018-03-26T05:13:52.403Z,13.77
2018-03-26T05:16:19.887Z,14.23
2018-03-26T05:18:48.132Z,13.93
2018-03-26T05:21:15.616Z,12.97
2018-03-26T05:23:43.077Z,12.97
2018-03-26T05:26:10.544Z,14.30
2018-03-26T05:28:38.010Z,14.67
2018-03-26T05:31:05.544Z,13.73
2018-03-26T05:33:33.730Z,16.30
2018-03-26T05:36:01.215Z,14.37
2018-03-26T05:41:02.473Z,35.43
2018-03-26T05:43:29.975Z,18.17
2018-03-26T05:45:58.215Z,17.70
2018-03-26T05:48:25.674Z,16.00
2018-03-26T05:50:53.154Z,15.60
2018-03-26T05:53:20.616Z,15.03
2018-03-26T05:55:48.102Z,14.27
2018-03-26T05:58:16.336Z,14.33
2018-03-26T06:00:43.798Z,14.27
2018-03-26T06:03:11.268Z,13.57
2018-03-26T06:05:38.717Z,13.80
2018-03-26T06:08:06.212Z,14.47
2018-03-26T06:10:33.685Z,15.17
2018-03-26T06:13:01.929Z,14.03
2018-03-26T06:15:29.444Z,16.53
2018-03-26T06:17:56.873Z,15.67
2018-03-26T06:20:25.248Z,21.63
2018-03-26T06:22:52.727Z,20.30
2018-03-26T06:25:20.197Z,16.53
2018-03-26T06:27:48.445Z,13.83
2018-03-26T06:30:15.924Z,14.57
2018-03-26T06:32:43.403Z,14.47
2018-03-26T06:35:11.647Z,14.97
2018-03-26T06:40:50.065Z,15.33
2018-03-26T06:43:17.567Z,15.20
2018-03-26T06:45:45.804Z,16.03
2018-03-26T06:48:13.282Z,16.93
2018-03-26T06:50:40.768Z,15.63
2018-03-26T06:53:09.018Z,16.23
2018-03-26T06:55:36.485Z,15.60
2018-03-26T06:58:03.970Z,16.50
2018-03-26T07:00:31.421Z,15.40
2018-03-26T07:02:58.881Z,14.20
2018-03-26T07:05:26.355Z,16.00
2018-03-26T07:07:54.615Z,14.50
2018-03-26T07:10:22.077Z,14.00
2018-03-26T07:12:49.571Z,14.53
2018-03-26T07:15:17.797Z,14.73
2018-03-26T07:17:45.283Z,14.40
2018-03-26T07:20:12.761Z,14.60
2018-03-26T07:22:40.237Z,15.03
2018-03-26T07:25:08.492Z,15.63
2018-03-26T07:27:35.984Z,16.33
2018-03-26T07:30:04.257Z,16.67
2018-03-26T07:32:32.546Z,17.63
2018-03-26T07:35:00.042Z,17.87
2018-03-26T07:37:27.538Z,17.83
2018-03-26T07:39:55.108Z,19.93
2018-03-26T07:42:22.624Z,17.70
2018-03-26T07:44:50.139Z,17.07
2018-03-26T07:47:17.672Z,18.03
2018-03-26T07:49:46.173Z,17.47
2018-03-26T07:52:13.674Z,18.67
2018-03-26T07:54:41.961Z,19.97
2018-03-26T07:57:09.535Z,18.83
2018-03-26T07:59:37.833Z,18.93
2018-03-26T08:02:05.365Z,22.63
2018-03-26T08:04:33.635Z,29.03
2018-03-26T08:07:01.928Z,24.50
2018-03-26T08:09:30.167Z,50.03
2018-03-26T08:11:57.626Z,39.80
2018-03-26T08:14:25.103Z,28.57
2018-03-26T08:16:52.568Z,62.33
2018-03-26T08:19:20.042Z,24.77
2018-03-26T08:21:47.502Z,32.43
2018-03-26T08:24:14.967Z,26.50
2018-03-26T08:26:42.440Z,23.43
2018-03-26T08:29:10.692Z,24.37
2018-03-26T08:31:38.159Z,23.13
2018-03-26T08:34:05.635Z,28.97
2018-03-26T08:36:33.094Z,24.00
2018-03-26T08:39:00.589Z,21.67
2018-03-26T08:41:28.084Z,23.97
2018-03-26T08:43:56.387Z,22.33
2018-03-26T08:46:23.878Z,23.37
2018-03-26T08:48:52.116Z,23.80
2018-03-26T08:51:19.589Z,22.87
2018-03-26T08:53:48.048Z,22.63
2018-03-26T08:56:15.570Z,23.97
2018-03-26T08:58:43.002Z,23.33
2018-03-26T09:01:10.468Z,23.67
2018-03-26T09:03:37.919Z,22.27
2018-03-26T09:06:05.406Z,23.37
2018-03-26T09:08:32.872Z,23.63
2018-03-26T09:11:00.337Z,24.93
2018-03-26T09:13:28.581Z,29.97
2018-03-26T09:15:56.050Z,32.77
2018-03-26T09:18:23.519Z,28.43
2018-03-26T09:20:50.995Z,29.83
2018-03-26T09:23:18.482Z,31.10
2018-03-26T09:25:48.658Z,29.33
2018-03-26T09:28:16.121Z,29.37
2018-03-26T09:30:43.593Z,29.93
2018-03-26T09:33:11.064Z,29.60
2018-03-26T09:35:38.544Z,30.30
2018-03-26T09:38:06.003Z,26.97
2018-03-26T09:40:33.508Z,27.30
2018-03-26T09:43:01.720Z,28.87
2018-03-26T09:45:29.197Z,26.70
2018-03-26T09:47:56.665Z,28.20
2018-03-26T09:50:24.148Z,27.90
2018-03-26T09:52:52.377Z,28.50
2018-03-26T09:55:19.850Z,27.77
2018-03-26T09:57:47.357Z,29.23
2018-03-26T10:00:17.364Z,28.13
2018-03-26T10:02:44.831Z,28.60
2018-03-26T10:05:13.063Z,27.37
2018-03-26T10:07:40.529Z,29.73
2018-03-26T10:10:07.999Z,30.40
2018-03-26T10:12:35.464Z,30.27
2018-03-26T10:15:02.923Z,30.47
2018-03-26T10:17:31.167Z,30.67
2018-03-26T10:19:58.649Z,30.93
2018-03-26T10:22:26.102Z,32.23
2018-03-26T10:24:53.564Z,30.13
2018-03-26T10:27:21.048Z,30.13
2018-03-26T10:29:48.517Z,30.23
2018-03-26T10:32:16.971Z,31.50
2018-03-26T10:34:44.435Z,30.67
2018-03-26T10:37:11.897Z,32.50
2018-03-26T10:39:39.769Z,30.90
2018-03-26T10:42:07.258Z,31.37
2018-03-26T10:44:34.723Z,32.57
2018-03-26T10:47:02.189Z,31.13
2018-03-26T10:49:29.641Z,33.07
2018-03-26T10:51:57.107Z,31.23
2018-03-26T10:54:24.582Z,32.83
2018-03-26T10:56:54.059Z,32.90
2018-03-26T10:59:21.522Z,33.97
2018-03-26T11:01:49.005Z,33.50
2018-03-26T11:04:16.472Z,33.27
2018-03-26T11:06:43.954Z,32.87
2018-03-26T11:09:11.436Z,30.63
2018-03-26T11:11:39.662Z,32.43
2018-03-26T11:14:07.149Z,31.10
2018-03-26T11:16:34.618Z,33.33
2018-03-26T11:19:02.970Z,32.23
2018-03-26T11:21:30.422Z,32.43
2018-03-26T11:23:57.894Z,32.33
2018-03-26T11:26:25.354Z,28.63
2018-03-26T11:28:52.830Z,32.90
2018-03-26T11:31:20.292Z,31.03
2018-03-26T11:33:47.760Z,35.50
2018-03-26T11:36:15.296Z,32.50
2018-03-26T11:38:42.712Z,34.63
2018-03-26T11:41:10.177Z,32.60
2018-03-26T11:43:38.428Z,33.77
2018-03-26T11:46:05.885Z,32.47
2018-03-26T11:48:33.379Z,33.53
2018-03-26T11:51:00.838Z,82.93
2018-03-26T11:53:28.330Z,35.90
2018-03-26T11:55:56.555Z,34.43
2018-03-26T11:58:24.021Z,31.57
2018-03-26T12:00:51.508Z,33.90
2018-03-26T12:03:18.988Z,33.87
2018-03-26T12:05:47.215Z,31.73
2018-03-26T12:08:14.685Z,75.07
2018-03-26T12:10:42.157Z,32.53
2018-03-26T12:13:09.638Z,33.33
2018-03-26T12:15:37.100Z,175.57
2018-03-26T12:18:04.580Z,34.73
2018-03-26T12:20:44.774Z,33.00
2018-03-26T12:23:24.268Z,33.50
2018-03-26T12:25:52.525Z,32.17
2018-03-26T12:28:31.936Z,33.07
2018-03-26T12:30:59.396Z,31.40
2018-03-26T12:33:26.857Z,33.53
2018-03-26T12:35:56.960Z,33.93
2018-03-26T12:38:24.428Z,33.47
2018-03-26T12:40:55.578Z,31.90
2018-03-26T12:43:23.036Z,33.47
2018-03-26T12:46:02.436Z,31.83
2018-03-26T12:48:30.674Z,31.83
2018-03-26T12:51:10.065Z,68.40
2018-03-26T12:53:37.534Z,44.57
2018-03-26T12:56:05.014Z,32.23
2018-03-26T12:58:43.003Z,37.53
2018-03-26T13:01:22.430Z,84.40
2018-03-26T13:03:49.912Z,151.63
2018-03-26T13:06:17.400Z,33.53
2018-03-26T13:08:44.859Z,33.60
2018-03-26T13:11:12.332Z,33.67
2018-03-26T13:13:39.836Z,33.00
2018-03-26T13:16:07.276Z,32.90
2018-03-26T13:18:34.753Z,32.40
2018-03-26T13:21:03.033Z,33.47
2018-03-26T13:23:30.445Z,32.93
2018-03-26T13:25:57.923Z,33.53
2018-03-26T13:28:25.400Z,33.10
2018-03-26T13:30:52.883Z,31.07
2018-03-26T13:36:14.635Z,34.00
2018-03-26T13:38:42.096Z,31.43
2018-03-26T13:41:09.585Z,30.63
2018-03-26T13:43:37.076Z,30.40
2018-03-26T13:46:04.574Z,30.67
2018-03-26T13:48:32.813Z,30.17
2018-03-26T13:51:00.304Z,29.97
2018-03-26T13:53:27.806Z,32.40
2018-03-26T13:55:55.274Z,30.47
2018-03-26T14:00:56.667Z,30.70
2018-03-26T14:03:24.140Z,29.00
2018-03-26T14:05:51.621Z,31.63
2018-03-26T14:08:31.000Z,29.90
2018-03-26T14:11:10.462Z,29.67
2018-03-26T14:13:49.684Z,29.60
2018-03-26T14:16:29.142Z,32.23
2018-03-26T14:18:56.643Z,32.07
2018-03-26T14:21:24.159Z,29.40
2018-03-26T14:23:51.610Z,29.90
2018-03-26T14:26:19.088Z,29.30
2018-03-26T14:28:46.572Z,30.57
2018-03-26T14:31:14.057Z,31.17
2018-03-26T14:33:42.298Z,30.47
2018-03-26T14:36:09.797Z,31.23
2018-03-26T14:38:38.042Z,30.20
2018-03-26T14:41:05.531Z,29.97
2018-03-26T14:43:33.019Z,27.83
2018-03-26T14:46:00.507Z,29.77
2018-03-26T14:48:27.988Z,31.00
2018-03-26T14:50:55.465Z,28.17
2018-03-26T14:53:22.966Z,27.50
2018-03-26T14:55:50.454Z,28.43
2018-03-26T14:58:17.928Z,29.00
2018-03-26T15:00:45.403Z,27.47
2018-03-26T15:03:12.886Z,26.80
2018-03-26T15:05:40.356Z,27.60
2018-03-26T15:08:07.862Z,27.97
2018-03-26T15:10:35.332Z,28.23
2018-03-26T15:13:02.812Z,27.10
2018-03-26T15:15:30.268Z,28.23
2018-03-26T15:17:57.740Z,28.90
2018-03-26T15:20:25.209Z,28.50
2018-03-26T15:22:52.695Z,28.20
2018-03-26T15:25:20.183Z,27.67
2018-03-26T15:27:48.414Z,27.73
2018-03-26T15:30:15.883Z,28.50
2018-03-26T15:32:43.349Z,27.27
2018-03-26T15:35:10.816Z,28.53
2018-03-26T15:37:38.281Z,28.80
2018-03-26T15:40:05.738Z,29.77
2018-03-26T15:42:33.206Z,38.47
2018-03-26T15:45:00.703Z,76.90
2018-03-26T15:47:28.210Z,80.60
2018-03-26T15:49:55.670Z,52.13
2018-03-26T15:52:23.144Z,41.47
2018-03-26T15:54:50.666Z,35.80
2018-03-26T15:57:18.096Z,29.47
2018-03-26T15:59:45.540Z,34.53
2018-03-26T16:02:12.542Z,30.83
2018-03-26T16:04:40.017Z,32.90
2018-03-26T16:07:07.498Z,27.70
2018-03-26T16:09:34.955Z,29.30
2018-03-26T16:12:02.444Z,28.07
2018-03-26T16:14:30.013Z,28.13
2018-03-26T16:16:57.473Z,28.47
2018-03-26T16:19:24.943Z,27.97
2018-03-26T16:21:52.407Z,28.47
2018-03-26T16:24:20.181Z,27.80
2018-03-26T16:26:48.417Z,26.90
2018-03-26T16:29:16.883Z,27.77
2018-03-26T16:31:44.340Z,28.07
2018-03-26T16:34:11.830Z,29.00
2018-03-26T16:36:39.295Z,27.53
2018-03-26T16:39:06.761Z,28.63
2018-03-26T16:41:47.282Z,28.00
2018-03-26T16:44:14.765Z,29.33
2018-03-26T16:46:42.226Z,27.57
2018-03-26T16:49:09.721Z,27.37
2018-03-26T16:51:37.205Z,27.37
2018-03-26T16:54:04.701Z,26.13
2018-03-26T16:56:32.188Z,29.00
2018-03-26T16:58:59.664Z,26.50
2018-03-26T17:01:27.126Z,30.27
2018-03-26T17:03:54.585Z,27.20
2018-03-26T17:06:22.041Z,26.90
2018-03-26T17:08:49.533Z,26.93
2018-03-26T17:11:16.991Z,26.63
2018-03-26T17:13:44.445Z,29.67
2018-03-26T17:16:11.905Z,26.37
2018-03-26T17:18:39.359Z,26.73
2018-03-26T17:21:06.833Z,26.63
2018-03-26T17:23:34.328Z,27.37
2018-03-26T17:26:02.544Z,29.37
2018-03-26T17:28:30.014Z,27.67
2018-03-26T17:30:57.485Z,27.50
2018-03-26T17:33:24.949Z,30.73
2018-03-26T17:35:52.434Z,28.63
2018-03-26T17:38:19.886Z,27.43
2018-03-26T17:40:47.364Z,28.70
2018-03-26T17:43:14.839Z,29.03
2018-03-26T17:45:43.078Z,28.03
2018-03-26T17:48:10.537Z,26.67
2018-03-26T17:50:39.923Z,29.13
2018-03-26T17:53:07.416Z,28.13
2018-03-26T17:55:34.845Z,31.23
2018-03-26T17:58:02.321Z,34.27
2018-03-26T18:00:29.824Z,29.93
2018-03-26T18:02:57.262Z,30.73
2018-03-26T18:05:24.733Z,29.57
2018-03-26T18:07:52.184Z,28.93
2018-03-26T18:10:19.654Z,29.10
2018-03-26T18:12:47.126Z,32.30
2018-03-26T18:15:14.597Z,34.17
2018-03-26T18:17:42.049Z,33.13
2018-03-26T18:20:09.521Z,32.83
2018-03-26T18:22:36.974Z,31.57
2018-03-26T18:25:04.437Z,31.83
2018-03-26T18:27:31.908Z,33.83
2018-03-26T18:29:59.369Z,36.47
2018-03-26T18:32:26.833Z,33.53
2018-03-26T18:34:54.285Z,34.97
2018-03-26T18:37:21.754Z,36.00
2018-03-26T18:39:49.204Z,39.90
2018-03-26T18:42:16.680Z,44.47
2018-03-26T18:44:44.157Z,49.17
2018-03-26T18:47:11.627Z,63.83
2018-03-26T18:49:39.898Z,45.90
2018-03-26T18:52:07.385Z,41.60
2018-03-26T18:54:35.606Z,41.70
2018-03-26T18:57:03.151Z,40.87
2018-03-26T18:59:30.528Z,39.77
2018-03-26T19:01:58.027Z,40.93
2018-03-26T19:04:25.495Z,39.00
2018-03-26T19:06:52.961Z,41.40
2018-03-26T19:09:21.190Z,44.00
2018-03-26T19:11:48.667Z,41.47
2018-03-26T19:14:16.126Z,41.33
2018-03-26T19:16:43.638Z,38.50
2018-03-26T19:19:11.053Z,45.70
2018-03-26T19:21:38.517Z,45.37
2018-03-26T19:24:05.979Z,47.53
2018-03-26T19:26:33.465Z,46.33
2018-03-26T19:29:00.926Z,43.57
2018-03-26T19:31:28.384Z,46.40
2018-03-26T19:33:55.825Z,45.00
2018-03-26T19:36:23.285Z,41.13
2018-03-26T19:38:50.749Z,45.73
2018-03-26T19:41:18.213Z,45.17
2018-03-26T19:43:45.677Z,46.30
2018-03-26T19:46:13.174Z,44.33
2018-03-26T19:48:40.630Z,47.57
2018-03-26T19:51:08.085Z,54.87
2018-03-26T19:53:35.532Z,52.37
2018-03-26T19:56:02.985Z,45.10
2018-03-26T19:58:30.445Z,47.17
2018-03-26T20:00:57.907Z,45.93
2018-03-26T20:03:25.382Z,44.30
2018-03-26T20:05:53.830Z,44.20
2018-03-26T20:08:21.297Z,47.23
2018-03-26T20:10:48.782Z,52.53
2018-03-26T20:13:16.251Z,46.90
2018-03-26T20:15:43.717Z,45.37
2018-03-26T20:18:11.191Z,47.47
2018-03-26T20:20:39.657Z,45.63
2018-03-26T20:23:07.128Z,48.00
2018-03-26T20:28:06.135Z,49.60
2018-03-26T20:30:33.600Z,48.30
2018-03-26T20:33:01.086Z,47.27
2018-03-26T20:35:28.540Z,47.37
2018-03-26T20:37:56.695Z,46.70
2018-03-26T20:40:24.162Z,46.90
2018-03-26T20:42:51.657Z,49.50
2018-03-26T20:45:19.111Z,50.13
2018-03-26T20:47:46.569Z,50.00
2018-03-26T20:50:14.031Z,51.73
2018-03-26T20:52:41.502Z,48.27
2018-03-26T20:55:08.969Z,49.90
2018-03-26T20:57:36.417Z,49.50
2018-03-26T21:00:03.889Z,49.97
2018-03-26T21:02:31.343Z,52.20
2018-03-26T21:04:58.806Z,54.23
2018-03-26T21:07:26.266Z,51.07
2018-03-26T21:09:53.793Z,48.97
2018-03-26T21:12:21.264Z,45.80
2018-03-26T21:14:48.717Z,44.80
2018-03-26T21:17:16.178Z,47.70
2018-03-26T21:19:43.645Z,48.27
2018-03-26T21:22:19.337Z,49.07
2018-03-26T21:24:46.809Z,52.87
2018-03-26T21:27:14.266Z,51.60
2018-03-26T21:29:41.726Z,47.80
2018-03-26T21:32:09.229Z,50.57
2018-03-26T21:34:36.672Z,48.13
2018-03-26T21:37:04.923Z,49.33
2018-03-26T21:39:32.393Z,50.40
2018-03-26T21:41:59.841Z,47.00
2018-03-26T21:44:27.294Z,51.20
2018-03-26T21:46:54.763Z,49.80
2018-03-26T21:49:22.231Z,46.33
2018-03-26T21:51:49.705Z,46.87
2018-03-26T21:54:17.173Z,47.57
2018-03-26T21:56:44.634Z,47.80
2018-03-26T21:59:12.112Z,49.17
2018-03-26T22:01:39.589Z,48.40
2018-03-26T22:04:07.036Z,48.87
2018-03-26T22:06:34.510Z,49.33
2018-03-26T22:09:01.975Z,53.87
2018-03-26T22:11:30.395Z,49.00
2018-03-26T22:13:58.635Z,46.70
2018-03-26T22:16:26.093Z,48.07
2018-03-26T22:18:53.559Z,48.33
2018-03-26T22:21:21.020Z,49.50
2018-03-26T22:23:48.482Z,47.70
2018-03-26T22:26:15.970Z,47.67
2018-03-26T22:28:44.192Z,48.60
2018-03-26T22:31:11.652Z,46.33
2018-03-26T22:33:39.131Z,48.43
2018-03-26T22:36:06.611Z,46.50
2018-03-26T22:38:34.076Z,47.43
2018-03-26T22:41:01.536Z,45.80
2018-03-26T22:43:28.985Z,45.50
2018-03-26T22:45:56.451Z,48.43
2018-03-26T22:48:23.905Z,49.90
2018-03-26T22:50:51.362Z,46.87
2018-03-26T22:53:18.822Z,47.17
2018-03-26T22:55:46.277Z,44.23
2018-03-26T22:58:13.733Z,44.70
2018-03-26T23:00:41.213Z,45.73
2018-03-26T23:03:08.668Z,44.27
2018-03-26T23:05:36.136Z,44.20
2018-03-26T23:08:03.594Z,43.37
2018-03-26T23:10:31.050Z,47.13
2018-03-26T23:12:58.517Z,43.57
2018-03-26T23:15:25.965Z,43.53
2018-03-26T23:17:53.461Z,42.60
2018-03-26T23:20:20.917Z,42.80
2018-03-26T23:22:48.380Z,43.20
2018-03-26T23:25:15.841Z,43.37
2018-03-26T23:27:43.298Z,43.50
2018-03-26T23:30:10.746Z,43.33
2018-03-26T23:32:38.213Z,44.80
2018-03-26T23:35:05.688Z,42.47
2018-03-26T23:37:33.153Z,43.00
2018-03-26T23:40:00.608Z,43.37
2018-03-26T23:42:28.073Z,43.17
2018-03-26T23:44:55.533Z,41.83
2018-03-26T23:47:23.010Z,43.10
2018-03-26T23:49:50.490Z,42.27
2018-03-26T23:52:17.972Z,43.40
2018-03-26T23:54:46.195Z,40.43
2018-03-26T23:57:13.661Z,43.27
2018-03-26T23:59:41.113Z,41.30
